Time;durP1;ratioP1;P1;durP2;ratioP2;P2;SDS_P1;SDS_P2;PMS_P1;PMS_P2;Temp;Humidity;BMP_temperature;BMP_pressure;BME280_temperature;BME280_humidity;BME280_pressure;Samples;Min_cycle;Max_cycle;Signal;HPM_P1;HPM_P2
2022/06/28 00:01:59;;;;;;;7.90;5.63;;;;;;;12.76;98.54;101995.19;5017478;28;20030;-84
2022/06/28 00:04:30;;;;;;;7.55;5.20;;;;;;;12.71;98.20;101995.47;5014666;28;20045;-84
2022/06/28 00:06:56;;;;;;;8.48;5.00;;;;;;;12.68;98.45;101986.91;5019299;28;20025;-83
2022/06/28 00:09:21;;;;;;;9.20;5.45;;;;;;;12.60;97.98;101982.13;5022264;28;20021;-83
2022/06/28 00:11:47;;;;;;;6.43;5.05;;;;;;;12.62;98.65;101982.03;5025126;28;20029;-83
2022/06/28 00:17:00;;;;;;;7.88;5.50;;;;;;;12.54;98.64;101983.38;5013915;28;20055;-83
2022/06/28 00:19:34;;;;;;;7.38;5.30;;;;;;;12.52;98.90;101985.25;5022865;28;20025;-83
2022/06/28 00:22:00;;;;;;;5.32;4.80;;;;;;;12.46;98.44;101982.16;5024102;28;20028;-84
2022/06/28 00:24:26;;;;;;;7.35;5.10;;;;;;;12.39;98.55;101984.31;5030970;28;20036;-83
2022/06/28 00:26:52;;;;;;;9.32;5.10;;;;;;;12.36;98.45;101976.59;5025713;28;20030;-83
2022/06/28 00:29:18;;;;;;;6.90;5.38;;;;;;;12.36;98.59;101986.31;5013470;28;20018;-83
2022/06/28 00:31:43;;;;;;;6.45;5.28;;;;;;;12.31;98.47;101991.03;5024824;28;20440;-83
2022/06/28 00:34:09;;;;;;;6.88;4.90;;;;;;;12.31;98.89;101997.16;5016424;28;20029;-84
2022/06/28 00:36:35;;;;;;;6.53;5.75;;;;;;;12.28;98.72;102000.00;5016008;28;20023;-83
2022/06/28 00:39:01;;;;;;;6.97;5.35;;;;;;;12.22;99.22;101995.09;5021917;28;20401;-83
2022/06/28 00:41:27;;;;;;;7.68;5.88;;;;;;;12.14;99.35;101992.94;5021735;28;20113;-83
2022/06/28 00:43:53;;;;;;;7.43;5.20;;;;;;;12.20;99.77;101999.63;5025138;28;20025;-83
2022/06/28 00:46:19;;;;;;;8.88;5.47;;;;;;;12.15;99.58;102004.34;5015242;28;20407;-83
2022/06/28 00:48:46;;;;;;;7.25;5.30;;;;;;;12.12;99.86;102002.75;5027073;28;20089;-83
2022/06/28 00:51:11;;;;;;;7.45;5.60;;;;;;;12.12;99.79;102004.53;5020975;28;20029;-83
2022/06/28 00:53:38;;;;;;;6.38;5.60;;;;;;;12.13;99.45;102008.88;5019113;28;20112;-82
2022/06/28 00:56:04;;;;;;;9.65;5.68;;;;;;;12.14;99.18;102005.28;5043729;28;20088;-83
2022/06/28 00:58:32;;;;;;;8.00;6.07;;;;;;;12.14;100.00;102000.03;5015252;28;20029;-83
2022/06/28 01:00:59;;;;;;;8.98;6.10;;;;;;;12.08;99.62;102005.69;5025970;28;20401;-82
2022/06/28 01:03:25;;;;;;;6.95;6.15;;;;;;;12.07;100.00;102004.84;5042205;28;20026;-83
2022/06/28 01:05:52;;;;;;;9.57;6.50;;;;;;;12.05;100.00;102004.09;5028399;28;20026;-84
2022/06/28 01:08:18;;;;;;;10.80;6.25;;;;;;;12.04;99.85;102001.53;5014435;28;20018;-84
2022/06/28 01:10:44;;;;;;;8.65;6.22;;;;;;;12.09;99.95;102002.09;5026215;28;20431;-83
2022/06/28 01:13:12;;;;;;;9.25;6.43;;;;;;;12.06;100.00;101997.00;5019659;28;20049;-83
2022/06/28 01:15:40;;;;;;;7.10;6.40;;;;;;;12.08;100.00;101997.75;5017943;28;20058;-84
2022/06/28 01:18:06;;;;;;;9.30;6.45;;;;;;;12.06;99.98;102003.13;5027765;28;20029;-84
2022/06/28 01:20:32;;;;;;;9.65;6.65;;;;;;;12.05;100.00;102008.50;5029203;28;20017;-83
2022/06/28 01:22:58;;;;;;;10.13;6.32;;;;;;;12.05;99.89;102004.09;5020975;28;20021;-84
2022/06/28 01:25:24;;;;;;;10.23;6.78;;;;;;;12.04;99.81;102010.31;5021269;28;20075;-85
2022/06/28 01:27:51;;;;;;;8.05;6.40;;;;;;;12.04;99.99;102009.44;5025001;28;20026;-85
2022/06/28 01:30:17;;;;;;;7.88;6.72;;;;;;;11.99;99.91;102007.06;5027209;28;20079;-84
2022/06/28 01:32:43;;;;;;;8.30;6.70;;;;;;;11.96;99.48;102001.13;5025428;28;20021;-84
2022/06/28 01:35:09;;;;;;;8.13;6.72;;;;;;;11.96;99.70;102011.69;5018337;28;20030;-84
2022/06/28 01:37:36;;;;;;;10.73;6.43;;;;;;;11.97;99.53;102010.75;5025114;28;20022;-84
2022/06/28 01:40:03;;;;;;;11.82;6.07;;;;;;;11.93;99.96;102013.56;5025126;28;20371;-84
2022/06/28 01:42:34;;;;;;;6.90;6.13;;;;;;;11.90;99.67;102019.03;5013206;28;20476;-85
2022/06/28 01:44:59;;;;;;;8.40;6.35;;;;;;;11.91;99.63;102014.59;5029408;28;20397;-84
2022/06/28 01:47:27;;;;;;;6.90;6.20;;;;;;;11.84;100.00;102014.13;5022043;28;20021;-85
2022/06/28 01:49:53;;;;;;;8.65;6.18;;;;;;;11.83;99.64;102020.34;5015486;28;20018;-84
2022/06/28 01:52:19;;;;;;;9.75;6.32;;;;;;;11.83;99.72;102023.00;5011122;28;20513;-84
2022/06/28 01:54:45;;;;;;;7.32;6.20;;;;;;;11.81;99.09;102027.50;5026414;28;20018;-84
2022/06/28 01:57:11;;;;;;;8.52;6.25;;;;;;;11.79;98.84;102021.47;5010987;28;20032;-85
2022/06/28 01:59:38;;;;;;;12.18;6.47;;;;;;;11.72;99.19;102030.66;5006520;28;20034;-84
2022/06/28 02:02:04;;;;;;;6.90;6.03;;;;;;;11.76;99.42;102026.91;5002476;28;20650;-84
2022/06/28 02:04:30;;;;;;;9.40;6.28;;;;;;;11.75;99.70;102029.63;5014287;28;20025;-84
2022/06/28 02:06:56;;;;;;;8.18;5.63;;;;;;;11.74;99.21;102026.16;5025700;28;20493;-84
2022/06/28 02:09:22;;;;;;;6.32;5.60;;;;;;;11.68;98.88;102023.88;5010286;28;20022;-84
2022/06/28 02:11:48;;;;;;;8.18;6.15;;;;;;;11.67;99.34;102026.63;5010053;28;20049;-83
2022/06/28 02:14:13;;;;;;;8.50;6.15;;;;;;;11.62;99.03;102029.53;5025918;28;20474;-83
2022/06/28 02:16:39;;;;;;;6.25;5.68;;;;;;;11.66;99.29;102031.03;5024521;28;20045;-84
2022/06/28 02:19:05;;;;;;;8.57;6.05;;;;;;;11.64;99.13;102042.63;5010719;28;20532;-83
2022/06/28 02:21:42;;;;;;;8.85;6.13;;;;;;;11.63;99.47;102039.13;5013198;28;20091;-84
2022/06/28 02:24:09;;;;;;;8.15;6.30;;;;;;;11.50;98.66;102041.63;5029884;28;20454;-83
2022/06/28 02:26:35;;;;;;;11.15;6.05;;;;;;;11.52;98.97;102041.53;5001779;28;20053;-83
2022/06/28 02:29:04;;;;;;;13.05;6.50;;;;;;;11.50;99.11;102051.31;5009163;28;20064;-83
2022/06/28 02:31:30;;;;;;;8.90;5.82;;;;;;;11.50;98.59;102046.03;5022517;28;20026;-83
2022/06/28 02:33:57;;;;;;;9.60;6.25;;;;;;;11.45;99.01;102048.09;5019148;28;20040;-83
2022/06/28 02:41:51;;;;;;;10.07;5.68;;;;;;;11.40;99.08;102065.97;5009407;28;20735;-83
2022/06/28 02:44:17;;;;;;;12.93;6.50;;;;;;;11.39;99.06;102057.22;5006914;28;20034;-83
2022/06/28 02:46:44;;;;;;;6.60;5.55;;;;;;;11.32;98.79;102058.53;5019623;28;20029;-83
2022/06/28 02:49:09;;;;;;;9.00;5.85;;;;;;;11.37;99.50;102066.16;5010062;28;20025;-83
2022/06/28 02:51:34;;;;;;;8.73;5.80;;;;;;;11.33;99.50;102075.19;5015702;28;20032;-83
2022/06/28 02:54:00;;;;;;;9.38;5.78;;;;;;;11.26;98.94;102067.63;5018667;28;20099;-83
2022/06/28 02:56:25;;;;;;;8.13;5.57;;;;;;;11.27;99.42;102077.22;5023374;28;20017;-83
2022/06/28 02:58:50;;;;;;;6.28;5.22;;;;;;;11.24;98.70;102072.13;5011587;28;20505;-83
2022/06/28 03:01:17;;;;;;;7.60;5.32;;;;;;;11.16;98.90;102084.88;5019604;28;20040;-83
2022/06/28 03:03:43;;;;;;;5.93;5.15;;;;;;;11.18;99.39;102085.63;5015742;28;20021;-83
2022/06/28 03:06:08;;;;;;;10.07;5.47;;;;;;;11.19;99.63;102092.59;5019167;28;20034;-83
2022/06/28 03:08:35;;;;;;;8.35;5.45;;;;;;;11.17;99.36;102089.19;5008885;28;20076;-83
2022/06/28 03:11:00;;;;;;;8.77;4.80;;;;;;;11.12;98.86;102090.41;5041934;28;20068;-83
2022/06/28 03:13:26;;;;;;;8.55;5.35;;;;;;;11.07;98.54;102090.66;5014946;28;20072;-83
2022/06/28 03:15:51;;;;;;;6.57;5.05;;;;;;;11.09;98.83;102091.44;5020386;28;20053;-83
2022/06/28 03:18:20;;;;;;;8.00;5.00;;;;;;;11.04;98.67;102093.47;5019141;28;20461;-83
2022/06/28 03:20:46;;;;;;;6.32;4.60;;;;;;;11.05;99.09;102095.16;5008715;28;20040;-83
2022/06/28 03:23:12;;;;;;;10.63;5.22;;;;;;;11.04;99.37;102092.63;5016281;28;20440;-83
2022/06/28 03:25:37;;;;;;;7.18;4.95;;;;;;;11.07;99.68;102100.34;5022381;28;20036;-83
2022/06/28 03:28:04;;;;;;;7.47;5.50;;;;;;;11.04;99.92;102095.25;5011601;28;20022;-83
2022/06/28 03:30:31;;;;;;;8.15;5.15;;;;;;;11.03;99.37;102099.69;5013846;28;20429;-80
2022/06/28 03:32:56;;;;;;;8.23;5.07;;;;;;;11.09;100.00;102109.00;5013820;28;20028;-83
2022/06/28 03:35:22;;;;;;;6.68;5.07;;;;;;;11.04;100.00;102111.06;5011172;28;20029;-83
2022/06/28 03:37:48;;;;;;;10.07;5.10;;;;;;;11.02;99.93;102108.50;5012845;28;20360;-83
2022/06/28 03:40:13;;;;;;;7.95;4.53;;;;;;;11.05;99.63;102104.84;5013578;28;20022;-83
2022/06/28 03:42:39;;;;;;;8.13;4.78;;;;;;;10.99;99.04;102113.94;5007924;28;20389;-83
2022/06/28 03:45:05;;;;;;;8.43;5.20;;;;;;;10.97;98.91;102115.81;5001759;28;20033;-83
2022/06/28 03:47:38;;;;;;;6.82;4.47;;;;;;;10.97;98.58;102121.94;5012731;28;20037;-83
2022/06/28 03:50:04;;;;;;;13.48;5.00;;;;;;;10.99;99.29;102124.47;5012706;28;20030;-83
2022/06/28 03:52:30;;;;;;;7.53;5.18;;;;;;;11.01;99.53;102111.22;4996771;28;20437;-83
2022/06/28 03:54:57;;;;;;;8.57;5.10;;;;;;;10.99;99.68;102119.22;5020120;28;20026;-84
2022/06/28 03:57:24;;;;;;;10.52;5.10;;;;;;;10.99;99.73;102113.94;5020957;28;20605;-83
2022/06/28 03:59:49;;;;;;;6.80;4.75;;;;;;;10.96;99.14;102112.34;5026772;28;20025;-83
2022/06/28 04:02:14;;;;;;;8.15;4.80;;;;;;;10.99;99.83;102116.59;5013485;28;20018;-83
2022/06/28 04:04:44;;;;;;;6.60;4.32;;;;;;;11.33;99.89;102117.34;5010933;28;20479;-82
2022/06/28 04:07:17;;;;;;;8.23;4.68;;;;;;;12.37;97.33;102115.53;5008611;28;20030;-82
2022/06/28 04:09:43;;;;;;;7.25;3.80;;;;;;;13.62;89.00;102115.53;5012908;28;20052;-82
2022/06/28 04:12:08;;;;;;;8.07;3.30;;;;;;;14.84;82.32;102111.53;5027264;28;20065;-82
2022/06/28 04:14:34;;;;;;;7.13;2.95;;;;;;;15.80;76.60;102107.94;5024912;28;20024;-82
2022/06/28 04:17:03;;;;;;;6.40;2.80;;;;;;;16.95;72.62;102112.25;5010753;28;20096;-82
2022/06/28 04:19:35;;;;;;;7.22;2.50;;;;;;;17.25;71.05;102104.44;5010246;28;20433;-82
2022/06/28 04:22:00;;;;;;;5.97;2.28;;;;;;;17.83;67.43;102110.25;5019986;28;20021;-82
2022/06/28 04:24:25;;;;;;;7.40;2.55;;;;;;;17.21;68.21;102102.97;5025780;28;20033;-83
2022/06/28 04:26:51;;;;;;;4.60;2.20;;;;;;;17.14;67.75;102101.81;5021209;28;20424;-83
2022/06/28 04:29:16;;;;;;;5.15;2.40;;;;;;;16.94;68.81;102106.09;5007876;28;20037;-83
2022/06/28 04:31:42;;;;;;;6.93;2.20;;;;;;;16.39;70.45;102114.91;5019037;28;20026;-82
2022/06/28 04:34:07;;;;;;;5.45;2.50;;;;;;;15.73;72.47;102113.81;5017247;28;20025;-83
2022/06/28 04:36:33;;;;;;;9.65;2.85;;;;;;;15.42;73.94;102116.06;5019950;28;20524;-82
2022/06/28 04:38:59;;;;;;;10.35;2.53;;;;;;;14.99;74.61;102121.03;5012966;28;20030;-82
2022/06/28 04:41:26;;;;;;;8.70;2.83;;;;;;;14.29;77.58;102112.72;5004368;28;20026;-82
2022/06/28 04:43:53;;;;;;;7.85;2.50;;;;;;;14.24;78.46;102113.03;5020923;28;20055;-83
2022/06/28 04:46:20;;;;;;;10.95;3.10;;;;;;;13.93;79.37;102111.63;5019215;28;20437;-83
2022/06/28 04:48:45;;;;;;;7.28;2.88;;;;;;;13.62;81.29;102120.81;5018543;28;20021;-82
2022/06/28 04:51:10;;;;;;;9.32;3.72;;;;;;;13.45;82.66;102113.97;5012396;28;20417;-83
2022/06/28 04:53:56;;;;;;;6.30;2.80;;;;;;;13.39;83.61;102122.31;5010129;28;20026;-83
2022/06/28 04:56:24;;;;;;;8.30;3.28;;;;;;;13.02;84.87;102115.88;5011529;28;20482;-83
2022/06/28 04:58:50;;;;;;;7.88;3.35;;;;;;;12.95;85.83;102125.13;5010724;28;20026;-83
2022/06/28 05:01:16;;;;;;;9.77;3.40;;;;;;;12.98;86.12;102114.38;5011306;28;20033;-83
2022/06/28 05:03:42;;;;;;;8.15;2.88;;;;;;;12.92;87.10;102114.78;5011018;28;20075;-83
2022/06/28 05:06:08;;;;;;;11.00;3.25;;;;;;;12.93;88.92;102127.03;5014752;28;20034;-82
2022/06/28 05:08:33;;;;;;;8.82;3.17;;;;;;;12.85;88.20;102134.59;5009976;28;20548;-83
2022/06/28 05:10:59;;;;;;;9.40;3.67;;;;;;;12.79;88.74;102129.66;5011767;28;20405;-83
2022/06/28 05:13:24;;;;;;;9.93;3.55;;;;;;;12.77;89.62;102126.28;5011628;28;20390;-84
2022/06/28 05:15:50;;;;;;;7.13;3.38;;;;;;;12.85;89.40;102130.16;5011009;28;20104;-83
2022/06/28 05:18:15;;;;;;;7.82;3.28;;;;;;;12.83;89.07;102136.50;5011851;28;20075;-83
2022/06/28 05:20:41;;;;;;;13.75;3.83;;;;;;;12.83;89.72;102128.56;5010769;28;20478;-83
2022/06/28 05:23:06;;;;;;;10.18;3.35;;;;;;;12.85;89.47;102134.59;5012471;28;20030;-84
2022/06/28 05:25:32;;;;;;;11.10;3.67;;;;;;;12.89;90.02;102136.09;5023878;28;20492;-84
2022/06/28 05:27:57;;;;;;;11.70;3.60;;;;;;;12.92;90.13;102130.63;5016598;28;20025;-83
2022/06/28 05:30:22;;;;;;;9.38;3.60;;;;;;;12.88;89.93;102129.13;5028617;28;20072;-83
2022/06/28 05:32:48;;;;;;;7.95;3.22;;;;;;;12.90;90.20;102121.94;5014147;28;20108;-83
2022/06/28 05:35:19;;;;;;;11.63;3.45;;;;;;;12.93;89.89;102115.63;5011059;28;20470;-83
2022/06/28 05:37:48;;;;;;;8.73;3.63;;;;;;;13.00;90.22;102117.75;5010463;28;20032;-83
2022/06/28 05:40:13;;;;;;;13.77;3.70;;;;;;;13.09;91.17;102113.69;5011039;28;20026;-83
2022/06/28 05:42:42;;;;;;;9.95;3.65;;;;;;;13.10;91.65;102116.22;5012350;28;20377;-83
2022/06/28 05:45:10;;;;;;;10.68;3.40;;;;;;;13.18;90.90;102111.31;5011729;28;20026;-84
2022/06/28 05:47:36;;;;;;;11.32;3.78;;;;;;;13.18;90.47;102105.19;5011282;28;20025;-83
2022/06/28 05:50:01;;;;;;;11.43;3.40;;;;;;;13.24;90.36;102103.97;5015072;28;20463;-83
2022/06/28 05:52:27;;;;;;;10.68;3.35;;;;;;;13.31;90.90;102105.25;5020851;28;20072;-83
2022/06/28 05:54:55;;;;;;;11.50;3.25;;;;;;;13.33;90.89;102106.00;5010471;28;20041;-83
2022/06/28 05:57:23;;;;;;;10.55;3.13;;;;;;;13.30;91.69;102093.84;5010360;28;20030;-84
2022/06/28 05:59:49;;;;;;;11.63;3.22;;;;;;;13.41;90.50;102098.41;5010305;28;20543;-84
2022/06/28 06:02:14;;;;;;;12.05;3.83;;;;;;;13.49;90.00;102098.75;5010148;28;20049;-84
2022/06/28 06:04:40;;;;;;;10.50;3.58;;;;;;;13.52;89.80;102105.63;5026773;28;20089;-84
2022/06/28 06:07:06;;;;;;;9.35;3.50;;;;;;;13.56;90.12;102104.47;5009692;28;21368;-84
2022/06/28 06:09:32;;;;;;;10.93;3.50;;;;;;;13.62;90.29;102104.94;5008070;28;20390;-83
2022/06/28 06:11:57;;;;;;;12.00;3.65;;;;;;;13.64;88.57;102105.69;5026358;28;20018;-84
2022/06/28 06:14:27;;;;;;;13.20;3.45;;;;;;;13.69;88.57;102108.88;5016496;28;20032;-85
2022/06/28 06:16:52;;;;;;;12.50;3.33;;;;;;;13.72;88.76;102111.31;5028422;28;20040;-85
2022/06/28 06:19:17;;;;;;;12.80;3.53;;;;;;;13.78;88.21;102110.88;5020977;28;20332;-85
2022/06/28 06:21:43;;;;;;;16.10;3.92;;;;;;;13.91;86.46;102116.19;5019058;28;20021;-84
2022/06/28 06:24:09;;;;;;;14.32;3.70;;;;;;;13.92;87.20;102114.38;5025642;28;20033;-85
2022/06/28 06:26:35;;;;;;;13.52;3.47;;;;;;;14.02;87.00;102121.63;5014588;28;20013;-85
2022/06/28 06:29:00;;;;;;;11.10;3.65;;;;;;;14.07;84.63;102122.16;5023461;28;20029;-84
2022/06/28 06:31:26;;;;;;;14.45;3.60;;;;;;;14.09;85.63;102114.94;4991287;28;20030;-84
2022/06/28 06:33:52;;;;;;;15.30;3.70;;;;;;;14.13;86.38;102125.34;5005580;28;20026;-84
2022/06/28 06:36:17;;;;;;;12.23;3.72;;;;;;;14.19;86.67;102124.91;5021548;28;20022;-85
2022/06/28 06:38:43;;;;;;;16.08;3.90;;;;;;;14.24;86.16;102120.97;5004492;28;20037;-84
2022/06/28 06:41:08;;;;;;;13.63;3.80;;;;;;;14.29;81.78;102128.59;4993869;28;20030;-85
2022/06/28 06:43:34;;;;;;;13.95;3.83;;;;;;;14.35;81.66;102125.53;4996362;28;20030;-84
2022/06/28 06:45:59;;;;;;;11.48;3.30;;;;;;;14.40;80.94;102129.53;5025377;28;20437;-84
2022/06/28 06:48:25;;;;;;;15.23;3.40;;;;;;;14.49;81.33;102127.28;5018184;28;20025;-85
2022/06/28 06:50:50;;;;;;;18.38;3.90;;;;;;;14.54;81.17;102130.44;5011246;28;20072;-85
2022/06/28 06:53:16;;;;;;;13.93;2.97;;;;;;;14.61;80.56;102137.00;5011664;28;20095;-84
2022/06/28 06:55:42;;;;;;;13.55;3.17;;;;;;;14.62;82.45;102138.69;5009586;28;20072;-83
2022/06/28 06:58:08;;;;;;;16.98;3.22;;;;;;;14.65;80.44;102134.03;5017889;28;20025;-84
2022/06/28 07:00:34;;;;;;;9.93;2.67;;;;;;;14.75;81.78;102136.84;5011784;28;20475;-84
2022/06/28 07:03:02;;;;;;;10.60;2.80;;;;;;;14.81;77.91;102138.22;5014361;28;20078;-84
2022/06/28 07:05:27;;;;;;;10.88;2.85;;;;;;;14.89;83.46;102131.44;5011614;28;20041;-84
2022/06/28 07:07:56;;;;;;;15.02;3.38;;;;;;;15.12;77.75;102139.53;5019297;28;20276;-81
2022/06/28 07:10:25;;;;;;;13.18;2.72;;;;;;;15.37;78.41;102142.09;5016105;28;20563;-81
2022/06/28 07:12:50;;;;;;;11.45;3.08;;;;;;;15.46;73.17;102136.09;5006938;28;20428;-81
2022/06/28 07:15:19;;;;;;;13.50;2.92;;;;;;;15.65;74.08;102144.44;5012559;28;20133;-80
2022/06/28 07:17:54;;;;;;;13.35;2.80;;;;;;;15.88;75.02;102136.53;5008113;28;20135;-81
2022/06/28 07:20:19;;;;;;;8.07;2.45;;;;;;;16.04;74.06;102137.09;5009003;28;20490;-80
2022/06/28 07:22:45;;;;;;;8.85;2.40;;;;;;;16.28;74.40;102129.88;4999141;28;20037;-80
2022/06/28 07:25:10;;;;;;;9.77;2.88;;;;;;;16.49;71.70;102126.53;5007304;28;20032;-79
2022/06/28 07:27:36;;;;;;;10.70;2.67;;;;;;;16.66;68.62;102136.69;5008061;28;20141;-80
2022/06/28 07:30:01;;;;;;;13.27;2.85;;;;;;;16.89;68.77;102130.41;5010152;28;20125;-80
2022/06/28 07:32:26;;;;;;;9.55;2.70;;;;;;;17.01;65.78;102127.72;5025137;28;20113;-80
2022/06/28 07:34:52;;;;;;;8.73;2.65;;;;;;;17.20;66.66;102130.56;5008175;28;20034;-80
2022/06/28 07:37:17;;;;;;;9.57;2.20;;;;;;;17.28;64.97;102132.63;5009843;28;20034;-80
2022/06/28 07:39:43;;;;;;;13.55;2.35;;;;;;;17.48;63.17;102127.34;4997766;28;20029;-80
2022/06/28 07:42:08;;;;;;;7.45;1.90;;;;;;;17.67;64.19;102125.84;5016385;28;20029;-80
2022/06/28 07:44:34;;;;;;;9.30;2.45;;;;;;;17.99;64.00;102126.63;5013962;28;20601;-80
2022/06/28 07:47:00;;;;;;;6.30;2.22;;;;;;;18.25;62.82;102128.88;5024220;28;20036;-79
2022/06/28 07:52:33;;;;;;;7.65;2.08;;;;;;;18.14;61.53;102130.66;5012899;28;20474;-80
2022/06/28 07:54:54;;;;;;;7.80;2.15;;;;;;;18.60;58.57;102132.00;5012242;28;20088;-79
2022/06/28 07:57:20;;;;;;;9.27;2.15;;;;;;;18.63;58.81;102130.94;5016968;28;20120;-79
2022/06/28 07:59:45;;;;;;;8.85;2.28;;;;;;;18.67;56.47;102122.53;5010135;28;20030;-79
2022/06/28 08:02:10;;;;;;;13.82;2.10;;;;;;;18.88;58.34;102118.97;5010943;28;20485;-80
2022/06/28 08:04:43;;;;;;;10.30;1.90;;;;;;;19.05;58.77;102120.94;5006802;28;20572;-80
2022/06/28 08:07:08;;;;;;;;;;;;;;;19.32;62.06;102118.47;5010759;28;20036;-80
2022/06/28 08:09:34;;;;;;;8.40;2.42;;;;;;;19.35;58.88;102107.50;5009246;28;19914;-80
2022/06/28 08:12:00;;;;;;;7.65;2.20;;;;;;;19.44;56.43;102115.66;5012260;28;20022;-80
2022/06/28 08:14:27;;;;;;;7.43;2.05;;;;;;;19.49;55.64;102113.41;5014828;28;20386;-80
2022/06/28 08:16:52;;;;;;;8.70;2.20;;;;;;;19.65;57.06;102119.06;5027089;28;20099;-80
2022/06/28 08:19:19;;;;;;;7.80;1.83;;;;;;;19.75;53.93;102113.72;5014915;28;20283;-80
2022/06/28 08:21:49;;;;;;;8.82;2.15;;;;;;;19.88;55.23;102119.59;5024852;28;20017;-79
2022/06/28 08:24:15;;;;;;;9.35;2.17;;;;;;;19.98;51.66;102105.22;5028487;28;20024;-80
2022/06/28 08:26:43;;;;;;;7.97;1.85;;;;;;;20.09;53.01;102106.06;5042045;28;20017;-82
2022/06/28 08:29:21;;;;;;;7.60;2.00;;;;;;;20.17;53.71;102093.66;5039577;28;20026;-78
2022/06/28 08:31:46;;;;;;;7.80;2.40;;;;;;;20.47;51.98;102095.28;5033631;28;20081;-78
2022/06/28 08:34:12;;;;;;;8.02;1.60;;;;;;;20.30;50.21;102093.34;5016339;28;20025;-77
2022/06/28 08:36:38;;;;;;;6.57;2.08;;;;;;;20.80;55.32;102095.66;5026363;28;20049;-79
2022/06/28 08:39:04;;;;;;;6.50;1.48;;;;;;;20.77;50.04;102090.59;5022920;28;20033;-80
2022/06/28 08:41:32;;;;;;;4.50;1.45;;;;;;;20.92;50.46;102083.78;5019100;28;20022;-79
2022/06/28 08:44:01;;;;;;;7.45;1.70;;;;;;;21.03;52.18;102083.56;5027532;28;20030;-80
2022/06/28 08:46:38;;;;;;;6.32;1.30;;;;;;;21.15;51.71;102073.47;5045219;28;20022;-80
2022/06/28 08:49:11;;;;;;;8.68;1.70;;;;;;;21.35;52.98;102075.03;5037308;28;20022;-80
2022/06/28 08:51:38;;;;;;;5.90;1.58;;;;;;;21.46;47.96;102068.59;5036541;28;20110;-80
2022/06/28 08:54:04;;;;;;;4.78;1.40;;;;;;;21.48;47.49;102064.75;5035431;28;20033;-79
2022/06/28 08:56:30;;;;;;;5.57;1.20;;;;;;;21.48;47.27;102072.78;5032511;28;20010;-81
2022/06/28 08:58:59;;;;;;;6.53;1.55;;;;;;;21.46;50.73;102071.28;5032586;28;20021;-79
2022/06/28 09:01:26;;;;;;;6.22;1.40;;;;;;;21.54;48.36;102074.00;5030638;28;20030;-80
2022/06/28 09:04:11;;;;;;;4.43;1.20;;;;;;;21.65;50.58;102075.63;5031855;28;20502;-80
2022/06/28 09:06:37;;;;;;;5.95;1.70;;;;;;;21.65;48.95;102071.13;5014965;28;20039;-80
2022/06/28 09:09:03;;;;;;;4.97;1.20;;;;;;;21.40;45.84;102071.91;5015907;28;20073;-80
2022/06/28 09:11:39;;;;;;;5.10;1.02;;;;;;;21.54;47.06;102076.69;5015645;28;20015;-81
2022/06/28 09:14:23;;;;;;;4.63;1.23;;;;;;;21.84;49.21;102070.91;5013012;28;20103;-80
2022/06/28 09:16:49;;;;;;;5.85;1.35;;;;;;;21.88;46.78;102072.25;5017521;28;20277;-81
2022/06/28 09:19:15;;;;;;;4.72;1.40;;;;;;;21.78;46.22;102066.16;5027621;28;20029;-81
2022/06/28 09:21:44;;;;;;;6.85;2.15;;;;;;;21.92;48.69;102066.59;5050359;28;20069;-82
2022/06/28 09:24:25;;;;;;;4.88;1.23;;;;;;;21.86;49.28;102063.53;5036004;28;20026;-81
2022/06/28 09:27:09;;;;;;;6.05;1.35;;;;;;;22.05;49.91;102064.38;5034956;28;20016;-81
2022/06/28 09:29:55;;;;;;;4.35;1.20;;;;;;;21.98;47.90;102055.22;5028204;28;20025;-81
2022/06/28 09:32:29;;;;;;;4.78;1.35;;;;;;;22.05;47.05;102050.97;5021951;28;20033;-80
2022/06/28 09:34:58;;;;;;;5.80;1.17;;;;;;;22.10;47.37;102052.16;4996016;28;20026;-81
2022/06/28 09:37:31;;;;;;;5.88;1.40;;;;;;;22.22;47.29;102050.03;5009129;28;20065;-81
2022/06/28 09:39:56;;;;;;;5.05;0.90;;;;;;;21.98;44.68;102044.50;5013005;28;20482;-81
2022/06/28 09:42:22;;;;;;;3.85;1.00;;;;;;;22.05;45.54;102050.97;5011967;28;20036;-80
2022/06/28 09:44:53;;;;;;;4.55;1.50;;;;;;;22.27;45.58;102052.25;5012064;28;20084;-81
2022/06/28 09:47:19;;;;;;;3.30;1.30;;;;;;;22.41;46.03;102040.91;5011922;28;20061;-80
2022/06/28 09:49:48;;;;;;;4.20;1.00;;;;;;;22.58;46.35;102033.78;5026259;28;20705;-80
2022/06/28 09:52:22;;;;;;;3.50;1.13;;;;;;;22.66;45.21;102036.47;5011819;28;20509;-80
2022/06/28 09:54:53;;;;;;;2.63;0.80;;;;;;;22.64;45.30;102025.91;5012051;28;20026;-81
2022/06/28 09:57:20;;;;;;;4.85;1.45;;;;;;;22.85;46.21;102012.06;5012356;28;20121;-80
2022/06/28 09:59:49;;;;;;;4.80;1.30;;;;;;;23.00;47.49;102012.25;5028117;28;20033;-80
2022/06/28 10:02:16;;;;;;;5.03;1.20;;;;;;;23.00;45.60;102013.09;5011699;28;20018;-80
2022/06/28 10:04:44;;;;;;;6.50;1.52;;;;;;;23.14;45.32;102014.25;5011314;28;20030;-81
2022/06/28 10:07:10;;;;;;;4.45;1.25;;;;;;;23.26;45.04;102014.78;5027106;28;20026;-80
2022/06/28 10:09:37;;;;;;;5.75;1.20;;;;;;;23.38;45.25;102010.75;5027131;28;20029;-81
2022/06/28 10:15:02;;;;;;;4.95;1.15;;;;;;;23.94;44.62;102009.00;5005408;28;20096;-80
2022/06/28 10:18:09;;;;;;;7.32;1.20;;;;;;;23.94;45.72;102009.81;5041705;28;20137;-81
2022/06/28 10:20:38;;;;;;;5.28;1.27;;;;;;;23.78;43.51;102009.03;5005352;28;20072;-80
2022/06/28 10:23:24;;;;;;;6.05;1.25;;;;;;;23.96;46.05;102009.66;5045267;28;20053;-79
2022/06/28 10:26:18;;;;;;;7.22;1.27;;;;;;;24.18;44.86;101995.47;5013680;28;20032;-79
2022/06/28 10:28:43;;;;;;;6.63;1.60;;;;;;;24.26;42.65;102000.81;5013885;28;20026;-79
2022/06/28 10:31:22;;;;;;;6.18;1.20;;;;;;;24.16;43.98;101989.44;5022164;28;20025;-79
2022/06/28 10:33:48;;;;;;;6.07;1.10;;;;;;;23.98;44.25;101988.81;5013311;28;20032;-80
2022/06/28 10:36:22;;;;;;;5.63;1.20;;;;;;;23.90;44.21;101983.47;5024779;28;20057;-79
2022/06/28 10:39:09;;;;;;;5.65;1.10;;;;;;;23.75;44.47;101981.50;5025843;28;20050;-79
2022/06/28 10:41:40;;;;;;;6.15;1.20;;;;;;;24.01;44.25;101970.47;5008036;28;20109;-78
2022/06/28 10:44:08;;;;;;;4.10;1.20;;;;;;;24.12;43.68;101974.66;5025092;28;20478;-78
2022/06/28 10:46:38;;;;;;;4.10;1.13;;;;;;;23.91;41.32;101974.38;5010975;28;20025;-77
2022/06/28 10:49:06;;;;;;;2.35;0.98;;;;;;;23.68;42.08;101980.50;5009267;28;20018;-78
2022/06/28 10:51:40;;;;;;;4.20;1.00;;;;;;;23.63;41.80;101974.81;5008119;28;20028;-77
2022/06/28 10:54:10;;;;;;;3.20;0.80;;;;;;;23.87;42.52;101967.69;5013953;28;20413;-77
2022/06/28 10:56:44;;;;;;;4.47;1.00;;;;;;;24.04;43.77;101962.09;4999826;28;20033;-78
2022/06/28 10:59:14;;;;;;;2.97;1.00;;;;;;;24.19;40.88;101964.88;4999735;28;20026;-76
2022/06/28 11:01:39;;;;;;;2.95;1.05;;;;;;;24.14;40.63;101956.50;5005250;28;20028;-77
2022/06/28 11:04:11;;;;;;;3.35;1.10;;;;;;;24.25;42.48;101961.47;5006201;28;20026;-79
2022/06/28 11:06:39;;;;;;;4.65;1.17;;;;;;;24.54;42.56;101951.94;4998112;28;20490;-76
2022/06/28 11:09:13;;;;;;;4.63;1.13;;;;;;;24.54;41.60;101951.94;5001620;28;20386;-78
2022/06/28 11:12:05;;;;;;;3.95;0.98;;;;;;;24.68;43.61;101951.16;5001321;28;20528;-77
2022/06/28 11:14:34;;;;;;;3.75;1.00;;;;;;;24.75;41.17;101949.41;5000844;28;20062;-77
2022/06/28 11:17:00;;;;;;;3.75;1.10;;;;;;;24.70;41.25;101938.34;5002706;28;20049;-77
2022/06/28 11:19:26;;;;;;;5.97;1.00;;;;;;;24.74;41.47;101939.66;5001529;28;20045;-78
2022/06/28 11:21:57;;;;;;;6.30;1.15;;;;;;;24.82;41.95;101938.78;5004036;28;20024;-77
2022/06/28 11:24:23;;;;;;;3.88;0.82;;;;;;;24.82;40.86;101928.84;4996698;28;20141;-78
2022/06/28 11:29:39;;;;;;;6.75;1.30;;;;;;;24.43;42.42;101920.06;4997570;28;20037;-78
2022/06/28 11:32:19;;;;;;;2.25;0.90;;;;;;;24.48;42.76;101920.34;4998375;28;20419;-79
2022/06/28 11:34:59;;;;;;;4.78;1.00;;;;;;;24.49;40.53;101922.88;5002850;28;20026;-79
2022/06/28 11:37:25;;;;;;;3.70;1.23;;;;;;;24.41;40.31;101917.50;5018104;28;20037;-79
2022/06/28 11:39:53;;;;;;;1.73;0.80;;;;;;;24.65;42.83;101905.75;5002435;28;20085;-80
2022/06/28 11:42:18;;;;;;;3.00;0.90;;;;;;;24.85;41.57;101914.19;4998742;28;20044;-78
2022/06/28 11:44:55;;;;;;;6.50;1.40;;;;;;;24.80;41.42;101920.09;5002175;28;20022;-79